createdAt,value
2017-08-13T00:01:02.595Z,15.7
2017-08-13T00:03:00.655Z,15.7
2017-08-13T00:04:00.256Z,15.7
2017-08-13T00:04:59.443Z,15.7
2017-08-13T00:05:58.520Z,15.6
2017-08-13T00:06:57.707Z,15.7
2017-08-13T00:07:57.286Z,15.7
2017-08-13T00:08:27.794Z,15.7
2017-08-13T00:08:58.288Z,15.7
2017-08-13T00:09:28.789Z,15.7
2017-08-13T00:09:59.288Z,15.6
2017-08-13T00:10:29.812Z,15.6
2017-08-13T00:11:54.044Z,15.6
2017-08-13T00:12:53.229Z,15.6
2017-08-13T00:13:52.402Z,15.6
2017-08-13T00:14:51.595Z,15.5
2017-08-13T00:15:50.792Z,15.6
2017-08-13T00:16:50.486Z,15.6
2017-08-13T00:17:49.659Z,15.6
2017-08-13T00:18:48.846Z,15.5
2017-08-13T00:19:47.911Z,15.5
2017-08-13T00:20:47.365Z,15.5
2017-08-13T00:21:46.572Z,15.5
2017-08-13T00:22:45.530Z,15.5
2017-08-13T00:23:44.973Z,15.5
2017-08-13T00:24:44.161Z,15.6
2017-08-13T00:25:43.230Z,15.5
2017-08-13T00:26:42.940Z,15.6
2017-08-13T00:27:13.323Z,15.6
2017-08-13T00:28:41.198Z,15.5
2017-08-13T00:29:40.398Z,15.5
2017-08-13T00:30:39.584Z,15.5
2017-08-13T00:31:39.038Z,15.6
2017-08-13T00:32:38.110Z,15.5
2017-08-13T00:33:37.300Z,15.5
2017-08-13T00:34:36.485Z,15.5
2017-08-13T00:35:35.674Z,15.6
2017-08-13T00:36:35.234Z,15.6
2017-08-13T00:37:34.423Z,15.6
2017-08-13T00:38:33.605Z,15.6
2017-08-13T00:39:32.794Z,15.6
2017-08-13T00:40:31.858Z,15.5
2017-08-13T00:41:31.540Z,15.6
2017-08-13T00:42:30.607Z,15.6
2017-08-13T00:43:29.792Z,15.6
2017-08-13T00:44:28.874Z,15.6
2017-08-13T00:45:28.064Z,15.6
2017-08-13T00:46:27.767Z,15.6
2017-08-13T00:47:26.996Z,15.5
2017-08-13T00:48:26.184Z,15.5
2017-08-13T00:48:56.675Z,15.5
2017-08-13T00:49:27.069Z,15.5
2017-08-13T00:49:57.562Z,15.5
2017-08-13T00:50:28.067Z,15.5
2017-08-13T00:50:58.557Z,15.5
2017-08-13T00:52:22.684Z,15.6
2017-08-13T00:53:22.389Z,15.6
2017-08-13T00:54:21.577Z,15.6
2017-08-13T00:55:20.766Z,15.5
2017-08-13T00:56:19.960Z,15.5
2017-08-13T00:57:19.162Z,15.6
2017-08-13T00:58:18.137Z,15.5
2017-08-13T00:59:17.475Z,15.5
2017-08-13T01:00:17.054Z,15.5
2017-08-13T01:01:16.129Z,15.5
2017-08-13T01:01:46.515Z,15.5
2017-08-13T01:02:16.895Z,15.6
2017-08-13T01:03:14.569Z,15.6
2017-08-13T01:04:13.638Z,15.5
2017-08-13T01:05:13.334Z,15.6
2017-08-13T01:06:12.276Z,15.5
2017-08-13T01:07:11.459Z,15.5
2017-08-13T01:10:09.198Z,15.5
2017-08-13T01:11:08.543Z,15.5
2017-08-13T01:12:07.509Z,15.5
2017-08-13T01:13:07.190Z,15.5
2017-08-13T01:14:06.370Z,15.5
2017-08-13T01:15:05.493Z,15.4
2017-08-13T01:16:04.701Z,15.4
2017-08-13T01:17:04.145Z,15.4
2017-08-13T01:18:03.203Z,15.5
2017-08-13T01:19:02.273Z,15.4
2017-08-13T01:20:01.471Z,15.4
2017-08-13T01:20:31.862Z,15.4
2017-08-13T01:22:00.233Z,15.5
2017-08-13T01:22:59.438Z,15.5
2017-08-13T01:23:58.628Z,15.5
2017-08-13T01:24:58.100Z,15.5
2017-08-13T01:25:57.165Z,15.5
2017-08-13T01:26:56.350Z,15.4
2017-08-13T01:27:55.536Z,15.5
2017-08-13T01:28:54.733Z,15.4
2017-08-13T01:29:53.954Z,15.4
2017-08-13T01:30:53.517Z,15.4
2017-08-13T01:31:52.568Z,15.4
2017-08-13T01:32:51.632Z,15.3
2017-08-13T01:33:50.820Z,15.3
2017-08-13T01:34:50.394Z,15.3
2017-08-13T01:35:49.572Z,15.3
2017-08-13T01:36:20.064Z,15.3
2017-08-13T01:36:50.455Z,15.3
2017-08-13T01:37:48.132Z,15.3
2017-08-13T01:38:47.330Z,15.3
2017-08-13T01:39:46.400Z,15.3
2017-08-13T01:40:45.469Z,15.3
2017-08-13T01:41:45.043Z,15.3
2017-08-13T01:42:44.239Z,15.3
2017-08-13T01:43:43.434Z,15.3
2017-08-13T01:44:42.508Z,15.3
2017-08-13T01:45:41.694Z,15.3
2017-08-13T01:46:40.885Z,15.3
2017-08-13T01:47:40.475Z,15.3
2017-08-13T01:48:39.541Z,15.3
2017-08-13T01:49:38.729Z,15.2
2017-08-13T01:50:37.924Z,15.2
2017-08-13T01:51:37.107Z,15.2
2017-08-13T01:52:36.297Z,15.2
2017-08-13T01:53:35.989Z,15.1
2017-08-13T01:54:34.943Z,15.2
2017-08-13T01:55:34.112Z,15.2
2017-08-13T01:56:33.309Z,15.2
2017-08-13T01:57:03.835Z,15.2
2017-08-13T01:57:34.249Z,15.1
2017-08-13T01:58:04.515Z,15.1
2017-08-13T01:58:35.017Z,15.1
2017-08-13T01:59:05.523Z,15.1
2017-08-13T01:59:36.010Z,15.1
2017-08-13T02:00:30.161Z,15.1
2017-08-13T02:01:29.751Z,15.1
2017-08-13T02:02:28.936Z,15.2
2017-08-13T02:03:28.117Z,15.1
2017-08-13T02:04:27.075Z,15.2
2017-08-13T02:05:26.657Z,15.1
2017-08-13T02:06:25.726Z,15.1
2017-08-13T02:07:24.797Z,15.2
2017-08-13T02:08:24.257Z,15.1
2017-08-13T02:09:23.588Z,15.1
2017-08-13T02:10:22.661Z,15.1
2017-08-13T02:11:21.733Z,15.2
2017-08-13T02:12:21.428Z,15.2
2017-08-13T02:13:20.493Z,15.2
2017-08-13T02:14:19.574Z,15.1
2017-08-13T02:15:18.639Z,15.1
2017-08-13T02:15:49.164Z,15.1
2017-08-13T02:17:17.426Z,15.1
2017-08-13T02:18:16.268Z,15.1
2017-08-13T02:19:15.968Z,15.2
2017-08-13T02:20:15.058Z,15.1
2017-08-13T02:21:14.136Z,15.2
2017-08-13T02:22:13.199Z,15.2
2017-08-13T02:23:12.538Z,15.2
2017-08-13T02:24:12.108Z,15.2
2017-08-13T02:25:11.065Z,15.2
2017-08-13T02:26:10.132Z,15.2
2017-08-13T02:27:09.702Z,15.2
2017-08-13T02:28:08.900Z,15.2
2017-08-13T02:29:08.081Z,15.2
2017-08-13T02:29:38.578Z,15.2
2017-08-13T02:31:06.446Z,15.3
2017-08-13T02:32:06.027Z,15.3
2017-08-13T02:33:05.217Z,15.2
2017-08-13T02:34:04.164Z,15.3
2017-08-13T02:35:03.752Z,15.3
2017-08-13T02:36:02.819Z,15.2
2017-08-13T02:37:01.905Z,15.2
2017-08-13T02:37:32.403Z,15.2
2017-08-13T02:39:00.269Z,15.3
2017-08-13T02:39:59.836Z,15.3
2017-08-13T02:40:59.030Z,15.3
2017-08-13T02:41:58.221Z,15.3
2017-08-13T02:42:57.407Z,15.3
2017-08-13T02:43:56.597Z,15.4
2017-08-13T02:44:55.790Z,15.4
2017-08-13T02:45:54.976Z,15.4
2017-08-13T02:46:54.189Z,15.4
2017-08-13T02:47:53.371Z,15.4
2017-08-13T02:48:53.057Z,15.4
2017-08-13T02:49:52.119Z,15.4
2017-08-13T02:50:51.199Z,15.4
2017-08-13T02:51:50.401Z,15.4
2017-08-13T02:52:49.596Z,15.4
2017-08-13T02:53:48.785Z,15.4
2017-08-13T02:54:48.479Z,15.4
2017-08-13T02:55:47.438Z,15.4
2017-08-13T02:56:46.499Z,15.4
2017-08-13T02:57:46.067Z,15.4
2017-08-13T02:58:45.261Z,15.4
2017-08-13T02:59:44.328Z,15.5
2017-08-13T03:00:43.540Z,15.5
2017-08-13T03:01:42.732Z,15.6
2017-08-13T03:02:41.912Z,15.6
2017-08-13T03:03:41.093Z,15.6
2017-08-13T03:04:40.661Z,15.7
2017-08-13T03:05:39.732Z,15.6
2017-08-13T03:06:38.916Z,15.7
2017-08-13T03:07:37.970Z,15.7
2017-08-13T03:08:08.354Z,15.7
2017-08-13T03:08:38.764Z,15.7
2017-08-13T03:09:09.161Z,15.7
2017-08-13T03:09:39.420Z,15.7
2017-08-13T03:10:09.912Z,15.7
2017-08-13T03:10:40.414Z,15.7
2017-08-13T03:11:35.073Z,15.7
2017-08-13T03:12:34.258Z,15.7
2017-08-13T03:13:33.950Z,15.7
2017-08-13T03:14:33.134Z,15.8
2017-08-13T03:15:31.951Z,15.8
2017-08-13T03:16:31.648Z,15.7
2017-08-13T03:17:30.819Z,15.7
2017-08-13T03:18:30.020Z,15.7
2017-08-13T03:19:29.199Z,15.7
2017-08-13T03:20:28.377Z,15.7
2017-08-13T03:21:27.437Z,15.7
2017-08-13T03:22:26.505Z,15.7
2017-08-13T03:24:25.090Z,15.7
2017-08-13T03:25:24.652Z,15.6
2017-08-13T03:26:23.845Z,15.6
2017-08-13T03:27:23.034Z,15.6
2017-08-13T03:28:22.109Z,15.6
2017-08-13T03:29:21.293Z,15.6
2017-08-13T03:30:20.853Z,15.6
2017-08-13T03:31:19.944Z,15.6
2017-08-13T03:32:19.037Z,15.6
2017-08-13T03:33:18.602Z,15.6
2017-08-13T03:34:17.782Z,15.6
2017-08-13T03:35:16.963Z,15.6
2017-08-13T03:36:16.141Z,15.5
2017-08-13T03:37:15.208Z,15.5
2017-08-13T03:38:14.775Z,15.6
2017-08-13T03:39:13.842Z,15.5
2017-08-13T03:40:13.041Z,15.5
2017-08-13T03:41:12.626Z,15.5
2017-08-13T03:42:11.795Z,15.5
2017-08-13T03:43:10.971Z,15.5
2017-08-13T03:44:10.169Z,15.5
2017-08-13T03:45:09.358Z,15.5
2017-08-13T03:45:39.862Z,15.5
2017-08-13T03:46:10.228Z,15.5
2017-08-13T03:47:07.907Z,15.5
2017-08-13T03:48:06.972Z,15.5
2017-08-13T03:49:06.179Z,15.5
2017-08-13T03:50:05.244Z,15.5
2017-08-13T03:51:04.816Z,15.5
2017-08-13T03:52:03.984Z,15.5
2017-08-13T03:53:03.433Z,15.5
2017-08-13T03:54:02.625Z,15.5
2017-08-13T03:55:01.959Z,15.5
2017-08-13T03:56:00.903Z,15.5
2017-08-13T03:57:00.086Z,15.5
2017-08-13T03:57:59.653Z,15.5
2017-08-13T03:58:58.827Z,15.5
2017-08-13T03:59:58.011Z,15.5
2017-08-13T04:00:57.187Z,15.5
2017-08-13T04:01:56.256Z,15.5
2017-08-13T04:02:55.436Z,15.5
2017-08-13T04:03:25.936Z,15.5
2017-08-13T04:03:56.453Z,15.5
2017-08-13T04:04:26.948Z,15.5
2017-08-13T04:04:57.452Z,15.5
2017-08-13T04:05:27.941Z,15.5
2017-08-13T04:06:52.802Z,15.5
2017-08-13T04:07:51.980Z,15.5
2017-08-13T04:08:51.169Z,15.5
2017-08-13T04:09:50.242Z,15.5
2017-08-13T04:10:49.433Z,15.5
2017-08-13T04:11:48.606Z,15.5
2017-08-13T04:12:48.286Z,15.5
2017-08-13T04:13:47.462Z,15.5
2017-08-13T04:14:46.548Z,15.5
2017-08-13T04:15:16.813Z,15.5
2017-08-13T04:15:47.192Z,15.5
2017-08-13T04:16:17.694Z,15.5
2017-08-13T04:16:48.188Z,15.5
2017-08-13T04:17:18.686Z,15.5
2017-08-13T04:18:43.317Z,15.5
2017-08-13T04:19:42.504Z,15.5
2017-08-13T04:20:41.943Z,15.5
2017-08-13T04:21:41.133Z,15.5
2017-08-13T04:22:40.321Z,15.5
2017-08-13T04:23:39.506Z,15.5
2017-08-13T04:24:39.198Z,15.5
2017-08-13T04:25:38.270Z,15.5
2017-08-13T04:26:37.318Z,15.5
2017-08-13T04:27:36.503Z,15.5
2017-08-13T04:28:36.065Z,15.5
2017-08-13T04:29:35.254Z,15.5
2017-08-13T04:30:34.421Z,15.5
2017-08-13T04:31:33.598Z,15.5
2017-08-13T04:32:32.772Z,15.5
2017-08-13T04:33:31.851Z,15.6
2017-08-13T04:34:31.038Z,15.5
2017-08-13T04:35:30.608Z,15.6
2017-08-13T04:36:29.561Z,15.6
2017-08-13T04:37:29.136Z,15.6
2017-08-13T04:38:28.321Z,15.6
2017-08-13T04:39:27.486Z,15.6
2017-08-13T04:40:26.683Z,15.6
2017-08-13T04:41:25.896Z,15.6
2017-08-13T04:42:25.068Z,15.6
2017-08-13T04:43:24.240Z,15.6
2017-08-13T04:44:23.918Z,15.6
2017-08-13T04:45:23.093Z,15.6
2017-08-13T04:46:22.265Z,15.6
2017-08-13T04:47:21.323Z,15.6
2017-08-13T04:48:20.502Z,15.6
2017-08-13T04:49:20.078Z,15.6
2017-08-13T04:50:19.151Z,15.6
2017-08-13T04:51:18.226Z,15.6
2017-08-13T04:52:17.415Z,15.6
2017-08-13T04:53:16.738Z,15.6
2017-08-13T04:54:15.918Z,15.6
2017-08-13T04:54:46.404Z,15.6
2017-08-13T04:55:16.538Z,15.6
2017-08-13T04:55:47.308Z,15.6
2017-08-13T04:56:17.818Z,15.6
2017-08-13T04:56:48.307Z,15.6
2017-08-13T04:57:18.798Z,15.6
2017-08-13T04:57:49.157Z,15.6
2017-08-13T04:59:12.492Z,15.6
2017-08-13T05:00:11.671Z,15.6
2017-08-13T05:01:10.849Z,15.6
2017-08-13T05:02:10.303Z,15.6
2017-08-13T05:03:09.376Z,15.6
2017-08-13T05:04:08.565Z,15.7
2017-08-13T05:05:07.755Z,15.6
2017-08-13T05:06:06.956Z,15.7
2017-08-13T05:07:06.517Z,15.7
2017-08-13T05:08:05.705Z,15.7
2017-08-13T05:09:04.772Z,15.7
2017-08-13T05:10:04.112Z,15.7
2017-08-13T05:11:03.290Z,15.7
2017-08-13T05:12:02.472Z,15.7
2017-08-13T05:13:01.524Z,15.8
2017-08-13T05:14:01.215Z,15.8
2017-08-13T05:15:00.418Z,15.8
2017-08-13T05:15:59.585Z,15.8
2017-08-13T05:16:58.746Z,15.8
2017-08-13T05:17:57.799Z,15.8
2017-08-13T05:18:57.017Z,15.8
2017-08-13T05:19:56.194Z,15.8
2017-08-13T05:20:55.876Z,15.8
2017-08-13T05:21:54.821Z,15.8
2017-08-13T05:22:54.004Z,15.8
2017-08-13T05:23:53.192Z,15.9
2017-08-13T05:24:52.858Z,15.9
2017-08-13T05:25:51.920Z,15.9
2017-08-13T05:26:51.007Z,15.9
2017-08-13T05:27:21.493Z,15.9
2017-08-13T05:27:51.867Z,15.9
2017-08-13T05:28:49.560Z,15.9
2017-08-13T05:29:48.750Z,15.9
2017-08-13T05:30:47.819Z,15.9
2017-08-13T05:31:47.391Z,15.9
2017-08-13T05:32:46.567Z,15.9
2017-08-13T05:33:45.633Z,15.9
2017-08-13T05:34:45.322Z,15.9
2017-08-13T05:35:44.502Z,15.9
2017-08-13T05:36:43.675Z,15.9
2017-08-13T05:37:42.749Z,15.9
2017-08-13T05:38:42.315Z,15.9
2017-08-13T05:39:41.375Z,15.9
2017-08-13T05:40:40.431Z,15.8
2017-08-13T05:41:39.609Z,15.8
2017-08-13T05:42:39.282Z,15.8
2017-08-13T05:43:38.359Z,15.8
2017-08-13T05:44:37.540Z,15.8
2017-08-13T05:45:36.731Z,15.8
2017-08-13T05:46:35.929Z,15.8
2017-08-13T05:47:35.653Z,15.7
2017-08-13T05:48:34.341Z,15.7
2017-08-13T05:49:34.032Z,15.7
2017-08-13T05:50:32.987Z,15.7
2017-08-13T05:51:31.940Z,15.7
2017-08-13T05:52:02.816Z,15.7
2017-08-13T05:52:33.071Z,15.7
2017-08-13T05:53:03.437Z,15.7
2017-08-13T05:53:33.815Z,15.6
2017-08-13T05:54:29.998Z,15.6
2017-08-13T05:55:29.080Z,15.6
2017-08-13T05:56:28.532Z,15.6
2017-08-13T05:57:27.591Z,15.6
2017-08-13T05:58:26.795Z,15.6
2017-08-13T05:59:25.973Z,15.6
2017-08-13T06:00:25.539Z,15.6
2017-08-13T06:01:24.603Z,15.6
2017-08-13T06:01:55.107Z,15.6
2017-08-13T06:02:25.617Z,15.6
2017-08-13T06:02:56.005Z,15.6
2017-08-13T06:03:26.378Z,15.6
2017-08-13T06:03:56.859Z,15.6
2017-08-13T06:04:27.236Z,15.6
2017-08-13T06:04:57.734Z,15.6
2017-08-13T06:06:20.955Z,15.6
2017-08-13T06:07:20.021Z,15.6
2017-08-13T06:08:19.582Z,15.6
2017-08-13T06:09:18.762Z,15.6
2017-08-13T06:10:17.833Z,15.6
2017-08-13T06:11:17.399Z,15.6
2017-08-13T06:12:16.590Z,15.6
2017-08-13T06:13:15.540Z,15.6
2017-08-13T06:14:14.610Z,15.7
2017-08-13T06:15:14.298Z,15.6
2017-08-13T06:16:13.361Z,15.6
2017-08-13T06:17:12.436Z,15.6
2017-08-13T06:18:11.616Z,15.6
2017-08-13T06:19:11.305Z,15.7
2017-08-13T06:20:10.409Z,15.6
2017-08-13T06:21:09.595Z,15.6
2017-08-13T06:21:40.091Z,15.6
2017-08-13T06:23:07.959Z,15.7
2017-08-13T06:24:07.424Z,15.7
2017-08-13T06:25:06.608Z,15.7
2017-08-13T06:26:05.673Z,15.7
2017-08-13T06:27:04.875Z,15.7
2017-08-13T06:28:04.053Z,15.7
2017-08-13T06:29:03.618Z,15.7
2017-08-13T06:30:02.682Z,15.6
2017-08-13T06:31:02.132Z,15.7
2017-08-13T06:32:01.316Z,15.6
2017-08-13T06:33:00.508Z,15.6
2017-08-13T06:33:59.708Z,15.6
2017-08-13T06:34:58.887Z,15.5
2017-08-13T06:35:58.494Z,15.6
2017-08-13T06:36:57.551Z,15.5
2017-08-13T06:37:56.750Z,15.5
2017-08-13T06:38:55.931Z,15.5
2017-08-13T06:39:55.119Z,15.5
2017-08-13T06:40:54.307Z,15.5
2017-08-13T06:41:53.879Z,15.5
2017-08-13T06:42:53.067Z,15.5
2017-08-13T06:43:23.558Z,15.5
2017-08-13T06:43:53.932Z,15.5
2017-08-13T06:44:24.180Z,15.5
2017-08-13T06:45:50.820Z,15.5
2017-08-13T06:46:50.003Z,15.5
2017-08-13T06:47:49.195Z,15.5
2017-08-13T06:48:48.264Z,15.4
2017-08-13T06:49:47.737Z,15.4
2017-08-13T06:50:46.918Z,15.4
2017-08-13T06:51:46.113Z,15.4
2017-08-13T06:52:45.163Z,15.4
2017-08-13T06:53:44.867Z,15.4
2017-08-13T06:54:44.042Z,15.4
2017-08-13T06:55:43.211Z,15.4
2017-08-13T06:56:13.703Z,15.4
2017-08-13T06:56:43.967Z,15.5
2017-08-13T06:57:41.641Z,15.5
2017-08-13T06:58:40.816Z,15.5
2017-08-13T06:59:39.875Z,15.5
2017-08-13T07:00:39.458Z,15.5
2017-08-13T07:01:38.412Z,15.5
2017-08-13T07:02:37.994Z,15.5
2017-08-13T07:03:37.064Z,15.5
2017-08-13T07:04:36.139Z,15.5
2017-08-13T07:05:35.615Z,15.6
2017-08-13T07:06:34.690Z,15.6
2017-08-13T07:07:34.259Z,15.6
2017-08-13T07:08:33.313Z,15.6
2017-08-13T07:09:32.368Z,15.6
2017-08-13T07:10:31.942Z,15.7
2017-08-13T07:11:31.132Z,15.7
2017-08-13T07:12:30.179Z,15.7
2017-08-13T07:13:29.375Z,15.7
2017-08-13T07:14:28.939Z,15.8
2017-08-13T07:14:59.429Z,15.8
2017-08-13T07:15:29.935Z,15.8
2017-08-13T07:16:00.432Z,15.8
2017-08-13T07:17:26.169Z,15.8
2017-08-13T07:18:25.858Z,15.8
2017-08-13T07:19:24.810Z,15.9
2017-08-13T07:20:24.011Z,15.9
2017-08-13T07:21:23.697Z,15.9
2017-08-13T07:22:22.647Z,15.9
2017-08-13T07:23:22.221Z,15.9
2017-08-13T07:24:21.179Z,15.9
2017-08-13T07:25:20.369Z,15.9
2017-08-13T07:26:19.445Z,15.9
2017-08-13T07:27:19.141Z,15.9
2017-08-13T07:28:18.321Z,16
2017-08-13T07:29:17.508Z,16
2017-08-13T07:30:16.453Z,16.1
2017-08-13T07:30:46.955Z,16.1
2017-08-13T07:31:17.331Z,16.1
2017-08-13T07:32:14.998Z,16.1
2017-08-13T07:33:14.576Z,16.1
2017-08-13T07:34:13.775Z,16.1
2017-08-13T07:35:12.858Z,16.1
2017-08-13T07:36:12.428Z,16.1
2017-08-13T07:37:11.618Z,16.1
2017-08-13T07:38:10.698Z,16.1
2017-08-13T07:39:09.754Z,16.1
2017-08-13T07:40:09.455Z,16.1
2017-08-13T07:42:07.533Z,16.2
2017-08-13T07:43:07.244Z,16.2
2017-08-13T07:44:06.326Z,16.2
2017-08-13T07:45:05.548Z,16.2
2017-08-13T07:46:04.611Z,16.2
2017-08-13T07:47:04.189Z,16.2
2017-08-13T07:48:03.254Z,16.2
2017-08-13T07:49:02.508Z,16.2
2017-08-13T07:50:01.686Z,16.2
2017-08-13T07:51:01.258Z,16.2
2017-08-13T07:51:31.765Z,16.2
2017-08-13T07:52:59.649Z,16.2
2017-08-13T07:53:58.834Z,16.2
2017-08-13T07:54:58.012Z,16.2
2017-08-13T07:55:57.189Z,16.3
2017-08-13T07:56:56.372Z,16.3
2017-08-13T07:57:55.942Z,16.2
2017-08-13T07:58:55.141Z,16.3
2017-08-13T07:59:54.080Z,16.2
2017-08-13T08:00:53.774Z,16.3
2017-08-13T08:01:52.843Z,16.3
2017-08-13T08:02:51.906Z,16.4
2017-08-13T08:03:51.607Z,16.4
2017-08-13T08:04:50.800Z,16.3
2017-08-13T08:05:49.974Z,16.3
2017-08-13T08:06:49.163Z,16.3
2017-08-13T08:07:48.344Z,16.3
2017-08-13T08:08:47.296Z,16.4
2017-08-13T08:09:46.638Z,16.4
2017-08-13T08:10:17.018Z,16.4
2017-08-13T08:10:47.409Z,16.4
2017-08-13T08:11:17.796Z,16.4
2017-08-13T08:11:48.169Z,16.4
2017-08-13T08:12:18.659Z,16.4
2017-08-13T08:12:49.057Z,16.4
2017-08-13T08:13:44.123Z,16.4
2017-08-13T08:14:43.186Z,16.5
2017-08-13T08:15:42.382Z,16.5
2017-08-13T08:16:41.445Z,16.5
2017-08-13T08:17:41.127Z,16.6
2017-08-13T08:18:39.969Z,16.6
2017-08-13T08:19:39.540Z,16.5
2017-08-13T08:20:38.614Z,16.5
2017-08-13T08:21:37.798Z,16.5
2017-08-13T08:22:08.309Z,16.5
2017-08-13T08:22:38.793Z,16.6
2017-08-13T08:23:09.313Z,16.6
2017-08-13T08:23:39.694Z,16.6
2017-08-13T08:24:10.064Z,16.6
2017-08-13T08:25:34.948Z,16.6
2017-08-13T08:26:34.510Z,16.6
2017-08-13T08:27:33.694Z,16.6
2017-08-13T08:28:32.893Z,16.5
2017-08-13T08:29:32.074Z,16.5
2017-08-13T08:30:31.140Z,16.5
2017-08-13T08:31:30.498Z,16.5
2017-08-13T08:32:29.681Z,16.5
2017-08-13T08:33:29.132Z,16.5
2017-08-13T08:34:28.694Z,16.5
2017-08-13T08:35:27.886Z,16.6
2017-08-13T08:36:27.081Z,16.6
2017-08-13T08:37:26.254Z,16.6
2017-08-13T08:38:25.576Z,16.6
2017-08-13T08:39:24.533Z,16.6
2017-08-13T08:40:23.870Z,16.5
2017-08-13T08:41:23.577Z,16.6
2017-08-13T08:42:22.788Z,16.6
2017-08-13T08:43:21.731Z,16.6
2017-08-13T08:44:20.911Z,16.6
2017-08-13T08:45:20.364Z,16.6
2017-08-13T08:46:19.435Z,16.6
2017-08-13T08:47:19.006Z,16.7
2017-08-13T08:48:18.084Z,16.7
2017-08-13T08:49:17.657Z,16.6
2017-08-13T08:50:16.846Z,16.7
2017-08-13T08:51:15.911Z,16.7
2017-08-13T08:52:15.102Z,16.7
2017-08-13T08:53:14.675Z,16.6
2017-08-13T08:54:13.768Z,16.6
2017-08-13T08:55:12.841Z,16.7
2017-08-13T08:56:12.430Z,16.7
2017-08-13T08:57:11.610Z,16.7
2017-08-13T08:58:10.805Z,16.7
2017-08-13T08:59:10.252Z,16.7
2017-08-13T09:00:09.433Z,16.7
2017-08-13T09:01:08.630Z,16.7
2017-08-13T09:02:08.205Z,16.7
2017-08-13T09:02:38.698Z,16.7
2017-08-13T09:03:09.247Z,16.7
2017-08-13T09:03:39.737Z,16.7
2017-08-13T09:04:10.114Z,16.7
2017-08-13T09:04:40.605Z,16.7
2017-08-13T09:06:05.016Z,16.7
2017-08-13T09:07:03.962Z,16.7
2017-08-13T09:08:03.661Z,16.7
2017-08-13T09:09:02.848Z,16.7
2017-08-13T09:10:01.790Z,16.7
2017-08-13T09:11:01.271Z,16.7
2017-08-13T09:12:00.733Z,16.7
2017-08-13T09:12:59.912Z,16.7
2017-08-13T09:13:59.111Z,16.8
2017-08-13T09:14:58.297Z,16.7
2017-08-13T09:15:57.865Z,16.7
2017-08-13T09:16:57.045Z,16.7
2017-08-13T09:17:56.242Z,16.7
2017-08-13T09:18:55.422Z,16.7
2017-08-13T09:19:54.591Z,16.7
2017-08-13T09:20:54.166Z,16.8
2017-08-13T09:21:53.240Z,16.8
2017-08-13T09:22:52.407Z,16.8
2017-08-13T09:23:52.091Z,16.9
2017-08-13T09:24:50.941Z,16.9
2017-08-13T09:25:50.627Z,16.8
2017-08-13T09:26:49.806Z,16.8
2017-08-13T09:27:48.871Z,16.9
2017-08-13T09:28:48.484Z,16.9
2017-08-13T09:29:47.662Z,16.9
2017-08-13T09:30:46.736Z,17
2017-08-13T09:31:46.304Z,17
2017-08-13T09:32:45.487Z,17.1
2017-08-13T09:33:44.554Z,17.1
2017-08-13T09:34:43.621Z,17.1
2017-08-13T09:35:43.331Z,17.1
2017-08-13T09:36:42.276Z,17.1
2017-08-13T09:37:41.970Z,17.2
2017-08-13T09:38:41.149Z,17.2
2017-08-13T09:40:39.724Z,17.1
2017-08-13T09:41:38.680Z,17.1
2017-08-13T09:42:38.368Z,17.2
2017-08-13T09:43:37.314Z,17.2
2017-08-13T09:44:36.503Z,17.1
2017-08-13T09:45:36.217Z,17.2
2017-08-13T09:46:35.300Z,17.1
2017-08-13T09:47:34.376Z,17.1
2017-08-13T09:48:33.558Z,17.1
2017-08-13T09:49:33.246Z,17
2017-08-13T09:50:32.306Z,16.9
2017-08-13T09:51:31.491Z,16.9
2017-08-13T09:52:30.949Z,16.8
2017-08-13T09:53:29.901Z,16.8
2017-08-13T09:54:29.463Z,16.8
2017-08-13T09:55:28.530Z,16.8
2017-08-13T09:56:28.098Z,16.8
2017-08-13T09:59:26.080Z,16.8
2017-08-13T10:01:24.548Z,16.8
2017-08-13T10:02:23.731Z,16.8
2017-08-13T10:03:22.923Z,16.8
2017-08-13T10:04:22.394Z,16.8
2017-08-13T10:05:21.576Z,16.8
2017-08-13T10:06:20.781Z,16.9
2017-08-13T10:07:19.866Z,16.9
2017-08-13T10:08:19.440Z,16.9
2017-08-13T10:09:18.620Z,16.9
2017-08-13T10:09:48.978Z,16.9
2017-08-13T10:10:19.357Z,17
2017-08-13T10:10:49.728Z,17
2017-08-13T10:11:20.208Z,17
2017-08-13T10:11:50.480Z,17
2017-08-13T10:13:15.720Z,17
2017-08-13T10:14:14.902Z,17
2017-08-13T10:15:14.081Z,16.9
2017-08-13T10:16:13.930Z,16.9
2017-08-13T10:17:12.807Z,17
2017-08-13T10:18:12.000Z,17
2017-08-13T10:20:10.555Z,16.9
2017-08-13T10:21:09.773Z,16.8
2017-08-13T10:22:09.143Z,16.9
2017-08-13T10:23:08.718Z,16.9
2017-08-13T10:24:07.651Z,16.8
2017-08-13T10:25:06.822Z,16.8
2017-08-13T10:26:06.396Z,16.8
2017-08-13T10:27:05.348Z,16.8
2017-08-13T10:28:04.912Z,16.8
2017-08-13T10:29:04.359Z,16.8
2017-08-13T10:30:03.185Z,16.8
2017-08-13T10:31:02.516Z,16.8
2017-08-13T10:32:01.978Z,16.9
2017-08-13T10:33:01.164Z,16.8
2017-08-13T10:34:00.233Z,16.8
2017-08-13T10:34:59.921Z,16.8
2017-08-13T10:35:58.976Z,16.7
2017-08-13T10:36:58.151Z,16.8
2017-08-13T10:37:57.843Z,16.8
2017-08-13T10:38:57.026Z,16.8
2017-08-13T10:39:56.208Z,16.8
2017-08-13T10:40:55.380Z,16.8
2017-08-13T10:41:54.642Z,16.8
2017-08-13T10:42:53.833Z,16.8
2017-08-13T10:43:53.522Z,16.8
2017-08-13T10:44:52.717Z,16.8
2017-08-13T10:45:51.900Z,16.7
2017-08-13T10:46:50.962Z,16.8
2017-08-13T10:47:50.412Z,16.8
2017-08-13T10:48:49.604Z,16.8
2017-08-13T10:49:48.664Z,16.8
2017-08-13T10:50:19.150Z,16.8
2017-08-13T10:50:49.527Z,16.8
2017-08-13T10:51:20.010Z,16.8
2017-08-13T10:52:46.870Z,16.8
2017-08-13T10:53:46.050Z,16.9
2017-08-13T10:54:45.225Z,16.9
2017-08-13T10:55:44.685Z,16.9
2017-08-13T10:56:43.748Z,17
2017-08-13T10:57:43.429Z,17
2017-08-13T10:58:42.508Z,17.1
2017-08-13T10:59:41.571Z,17.1
2017-08-13T11:00:41.249Z,17.1
2017-08-13T11:01:40.425Z,17.2
2017-08-13T11:02:39.622Z,17.2
2017-08-13T11:03:09.994Z,17.2
2017-08-13T11:03:40.357Z,17.2
2017-08-13T11:04:10.838Z,17.2
2017-08-13T11:04:41.214Z,17.2
2017-08-13T11:05:37.263Z,17.2
2017-08-13T11:06:36.450Z,17.2
2017-08-13T11:07:35.905Z,17.2
2017-08-13T11:08:35.095Z,17.3
2017-08-13T11:09:34.282Z,17.3
2017-08-13T11:10:33.850Z,17.3
2017-08-13T11:11:33.030Z,17.3
2017-08-13T11:12:32.211Z,17.3
2017-08-13T11:13:31.669Z,17.4
2017-08-13T11:14:30.733Z,17.4
2017-08-13T11:15:30.438Z,17.4
2017-08-13T11:16:29.499Z,17.3
2017-08-13T11:17:28.565Z,17.4
2017-08-13T11:18:28.137Z,17.4
2017-08-13T11:19:27.207Z,17.4
2017-08-13T11:20:26.387Z,17.4
2017-08-13T11:21:26.076Z,17.5
2017-08-13T11:22:25.140Z,17.5
2017-08-13T11:22:55.673Z,17.5
2017-08-13T11:23:26.056Z,17.5
2017-08-13T11:24:24.001Z,17.5
2017-08-13T11:25:23.180Z,17.6
2017-08-13T11:26:22.267Z,17.6
2017-08-13T11:27:21.468Z,17.6
2017-08-13T11:28:20.536Z,17.6
2017-08-13T11:29:20.110Z,17.6
2017-08-13T11:30:19.564Z,17.5
2017-08-13T11:31:18.744Z,17.5
2017-08-13T11:32:18.286Z,17.5
2017-08-13T11:33:17.465Z,17.5
2017-08-13T11:34:16.174Z,17.5
2017-08-13T11:35:15.652Z,17.5
2017-08-13T11:37:14.608Z,17.5
2017-08-13T11:38:13.787Z,17.6
2017-08-13T11:39:12.866Z,17.6
2017-08-13T11:40:12.328Z,17.6
2017-08-13T11:41:11.520Z,17.6
2017-08-13T11:42:10.692Z,17.6
2017-08-13T11:43:10.410Z,17.6
2017-08-13T11:45:08.994Z,17.6
2017-08-13T11:46:08.185Z,17.7
2017-08-13T11:47:07.372Z,17.7
2017-08-13T11:48:06.434Z,17.6
2017-08-13T11:49:05.887Z,17.6
2017-08-13T11:50:05.073Z,17.6
2017-08-13T11:51:04.650Z,17.5
2017-08-13T11:52:03.739Z,17.6
2017-08-13T11:53:02.917Z,17.6
2017-08-13T11:54:02.609Z,17.6
2017-08-13T11:55:01.688Z,17.7
2017-08-13T11:56:00.873Z,17.7
2017-08-13T11:57:00.069Z,17.7
2017-08-13T11:57:59.509Z,17.7
2017-08-13T11:58:30.000Z,17.7
2017-08-13T11:59:00.501Z,17.8
2017-08-13T11:59:30.997Z,17.8
2017-08-13T12:00:01.487Z,17.8
2017-08-13T12:00:31.869Z,17.8
2017-08-13T12:01:02.377Z,17.9
2017-08-13T12:01:32.857Z,17.9
2017-08-13T12:02:56.083Z,17.9
2017-08-13T12:03:55.265Z,17.9
2017-08-13T12:04:54.474Z,17.9
2017-08-13T12:05:53.648Z,17.9
2017-08-13T12:06:53.351Z,17.9
2017-08-13T12:07:52.405Z,17.9
2017-08-13T12:08:51.973Z,18
2017-08-13T12:09:51.022Z,17.9
2017-08-13T12:10:50.075Z,17.9
2017-08-13T12:11:20.337Z,17.9
2017-08-13T12:11:50.604Z,17.9
2017-08-13T12:12:48.783Z,17.9
2017-08-13T12:13:47.841Z,17.8
2017-08-13T12:14:47.538Z,17.8
2017-08-13T12:15:46.605Z,17.8
2017-08-13T12:16:46.055Z,17.8
2017-08-13T12:17:45.246Z,17.9
2017-08-13T12:18:15.620Z,17.9
2017-08-13T12:18:46.006Z,17.9
2017-08-13T12:19:44.172Z,17.9
2017-08-13T12:20:43.360Z,17.9
2017-08-13T12:21:42.552Z,18
2017-08-13T12:23:41.398Z,18
2017-08-13T12:24:40.587Z,18
2017-08-13T12:25:39.774Z,18
2017-08-13T12:26:38.836Z,18
2017-08-13T12:27:38.524Z,18
2017-08-13T12:28:37.601Z,18.1
2017-08-13T12:29:07.728Z,18.1
2017-08-13T12:29:38.369Z,18.1
2017-08-13T12:30:08.864Z,18.1
2017-08-13T12:30:39.253Z,18
2017-08-13T12:31:09.646Z,18
2017-08-13T12:32:34.930Z,18
2017-08-13T12:33:34.109Z,17.9
2017-08-13T12:34:33.287Z,17.9